Skelton, AK

6:40 AM AKDT on August 30, 2015 (GMT -0800)
Eureka | | Change Station
CLOSE
Current Station
Airport
Location: Eureka,
Elevation: 3287 ft
Nearby Weather Stations

Elev 3287 ft 61.93 °N, 147.17 °W | Updated 4 minutes ago

Overcast
Overcast
30 °F
Feels Like 21 °F
N
12
Wind Variable Wind from North
Gusts 20 mph

Today
High -- | Low -- °F
--% Chance of Precip.
Yesterday
High -- | Low -- °F
Precip. -- in
6:32 AM 9:03 PM
Full, 99% visible
Pressure 29.22 in
Visibility 10.0 miles
Clouds Scattered Clouds 4000 ft
Overcast 10000 ft
Windchill 21 °F
Dew Point 25 °F
Humidity 80%
Rainfall 0.00 in
Snow Depth Not available.
UV 0 out of 12
Pollen Not available.
Air Quality Not available.
Flu Activity Not available.
METAR PAZK 301436Z AUTO 35010G17KT 10SM SCT040 OVC100 M01/M04 A2922 RMK AO1
Pressure 29.22 in
Visibility 10.0 miles
Clouds Scattered Clouds 4000 ft
Overcast 10000 ft
Windchill 21 °F
Dew Point 25 °F
Humidity 80%
Rainfall 0.00 in
Snow Depth Not available.
UV 0 out of 12
Pollen Not available.
Air Quality Not available.
Flu Activity Not available.
METAR PAZK 301436Z AUTO 35010G17KT 10SM SCT040 OVC100 M01/M04 A2922 RMK AO1

10-Day Weather Forecast

×

Almanac

Astronomy

Aug. 30, 2015 Rise Set
Actual Time
Civil Twilight
Nautical Twilight
Astronomical Twilight
Moon
Length of Visible Light
Length of Day
Tomorrow will be .
, % of the Moon is Illuminated

Today's Extremes

State Highs State Lows

Community

WunderPhotos

Upload Photos

1,850,974 photos uploaded!

WunderBlogs® & News

Nearby

Air Quality

  Air Quality AQ Index Pollutant
Not available.

Snow Depth

Station Depth Elevation

Earthquake Activity

City Distance Mag. Time & Date
Minimum magnitude displayed is 2.5.

Coastal Water Temperatures

Place Temperature

Stations

Nearby Weather Stations

Station Location Temp. Windchill Dew Point Humidity Wind Precip. Elev Updated Type